sensor_id;sensor_type;location;lat;lon;timestamp;pressure;altitude;pressure_sealevel;temperature;humidity
73860;BME280;62197;51.632;13.700;2023-05-08T00:00:45;101186.06;;;5.49;100.00
73860;BME280;62197;51.632;13.700;2023-05-08T00:03:10;101181.81;;;5.47;100.00
73860;BME280;62197;51.632;13.700;2023-05-08T00:05:36;101189.66;;;5.35;100.00
73860;BME280;62197;51.632;13.700;2023-05-08T00:08:01;101187.84;;;5.42;100.00
73860;BME280;62197;51.632;13.700;2023-05-08T00:10:27;101190.03;;;5.47;100.00
73860;BME280;62197;51.632;13.700;2023-05-08T00:12:53;101184.09;;;5.43;100.00
73860;BME280;62197;51.632;13.700;2023-05-08T00:15:18;101191.91;;;5.46;100.00
73860;BME280;62197;51.632;13.700;2023-05-08T00:17:43;101187.00;;;5.42;100.00
73860;BME280;62197;51.632;13.700;2023-05-08T00:20:09;101185.88;;;5.36;100.00
73860;BME280;62197;51.632;13.700;2023-05-08T00:22:34;101184.56;;;5.32;100.00
73860;BME280;62197;51.632;13.700;2023-05-08T00:25:00;101182.00;;;5.31;100.00
73860;BME280;62197;51.632;13.700;2023-05-08T00:27:25;101189.22;;;5.32;100.00
73860;BME280;62197;51.632;13.700;2023-05-08T00:29:50;101187.13;;;5.34;100.00
73860;BME280;62197;51.632;13.700;2023-05-08T00:32:16;101193.44;;;5.34;100.00
73860;BME280;62197;51.632;13.700;2023-05-08T00:34:41;101191.00;;;5.39;100.00
73860;BME280;62197;51.632;13.700;2023-05-08T00:37:06;101193.13;;;5.44;100.00
73860;BME280;62197;51.632;13.700;2023-05-08T00:39:32;101182.97;;;5.38;100.00
73860;BME280;62197;51.632;13.700;2023-05-08T00:41:57;101178.72;;;5.35;100.00
73860;BME280;62197;51.632;13.700;2023-05-08T00:44:22;101184.00;;;5.37;100.00
73860;BME280;62197;51.632;13.700;2023-05-08T00:46:48;101181.06;;;5.38;100.00
73860;BME280;62197;51.632;13.700;2023-05-08T00:49:13;101186.84;;;5.43;100.00
73860;BME280;62197;51.632;13.700;2023-05-08T00:51:39;101179.28;;;5.45;100.00
73860;BME280;62197;51.632;13.700;2023-05-08T00:54:06;101192.66;;;5.40;100.00
73860;BME280;62197;51.632;13.700;2023-05-08T00:56:32;101178.53;;;5.37;100.00
73860;BME280;62197;51.632;13.700;2023-05-08T00:58:59;101172.38;;;5.35;100.00
73860;BME280;62197;51.632;13.700;2023-05-08T01:01:25;101175.31;;;5.33;100.00
73860;BME280;62197;51.632;13.700;2023-05-08T01:03:50;101163.31;;;5.34;100.00
73860;BME280;62197;51.632;13.700;2023-05-08T01:06:16;101172.78;;;5.32;100.00
73860;BME280;62197;51.632;13.700;2023-05-08T01:08:43;101166.81;;;5.28;100.00
73860;BME280;62197;51.632;13.700;2023-05-08T01:16:45;101184.03;;;5.22;100.00
73860;BME280;62197;51.632;13.700;2023-05-08T01:35:57;101182.97;;;4.80;100.00
73860;BME280;62197;51.632;13.700;2023-05-08T01:38:41;101189.66;;;4.77;100.00
73860;BME280;62197;51.632;13.700;2023-05-08T01:41:13;101183.72;;;4.74;100.00
73860;BME280;62197;51.632;13.700;2023-05-08T01:44:17;101189.66;;;4.77;100.00
73860;BME280;62197;51.632;13.700;2023-05-08T01:46:47;101187.66;;;4.71;100.00
73860;BME280;62197;51.632;13.700;2023-05-08T01:49:22;101185.31;;;4.68;100.00
73860;BME280;62197;51.632;13.700;2023-05-08T01:51:56;101188.41;;;4.65;100.00
73860;BME280;62197;51.632;13.700;2023-05-08T01:54:25;101183.50;;;4.61;100.00
73860;BME280;62197;51.632;13.700;2023-05-08T01:56:55;101186.78;;;4.56;100.00
73860;BME280;62197;51.632;13.700;2023-05-08T01:59:22;101191.22;;;4.57;100.00
73860;BME280;62197;51.632;13.700;2023-05-08T02:01:51;101190.19;;;4.58;100.00
73860;BME280;62197;51.632;13.700;2023-05-08T02:04:18;101186.59;;;4.57;100.00
73860;BME280;62197;51.632;13.700;2023-05-08T02:06:44;101175.94;;;4.48;100.00
73860;BME280;62197;51.632;13.700;2023-05-08T02:09:10;101182.44;;;4.47;100.00
73860;BME280;62197;51.632;13.700;2023-05-08T02:11:37;101191.31;;;4.49;100.00
73860;BME280;62197;51.632;13.700;2023-05-08T02:14:03;101185.84;;;4.49;100.00
73860;BME280;62197;51.632;13.700;2023-05-08T02:16:30;101190.81;;;4.45;100.00
73860;BME280;62197;51.632;13.700;2023-05-08T02:18:59;101190.72;;;4.39;100.00
73860;BME280;62197;51.632;13.700;2023-05-08T02:21:25;101194.72;;;4.28;100.00
73860;BME280;62197;51.632;13.700;2023-05-08T02:23:53;101191.78;;;4.30;100.00
73860;BME280;62197;51.632;13.700;2023-05-08T02:26:21;101185.84;;;4.26;100.00
73860;BME280;62197;51.632;13.700;2023-05-08T02:28:48;101188.78;;;4.25;100.00
73860;BME280;62197;51.632;13.700;2023-05-08T02:31:15;101187.31;;;4.14;100.00
73860;BME280;62197;51.632;13.700;2023-05-08T02:33:42;101193.41;;;4.02;100.00
73860;BME280;62197;51.632;13.700;2023-05-08T02:36:10;101192.91;;;3.98;100.00
73860;BME280;62197;51.632;13.700;2023-05-08T02:38:38;101197.28;;;3.85;100.00
73860;BME280;62197;51.632;13.700;2023-05-08T02:41:05;101199.16;;;3.84;100.00
73860;BME280;62197;51.632;13.700;2023-05-08T02:43:32;101200.34;;;3.82;100.00
73860;BME280;62197;51.632;13.700;2023-05-08T02:46:08;101191.66;;;3.78;100.00
73860;BME280;62197;51.632;13.700;2023-05-08T02:48:43;101200.34;;;3.82;100.00
73860;BME280;62197;51.632;13.700;2023-05-08T02:51:20;101192.81;;;3.84;100.00
73860;BME280;62197;51.632;13.700;2023-05-08T02:53:55;101195.88;;;3.89;100.00
73860;BME280;62197;51.632;13.700;2023-05-08T02:56:36;101198.84;;;3.79;100.00
73860;BME280;62197;51.632;13.700;2023-05-08T02:59:12;101194.59;;;3.77;100.00
73860;BME280;62197;51.632;13.700;2023-05-08T03:01:49;101194.06;;;3.81;100.00
73860;BME280;62197;51.632;13.700;2023-05-08T03:04:30;101199.19;;;3.76;100.00
73860;BME280;62197;51.632;13.700;2023-05-08T03:06:57;101198.06;;;3.62;100.00
73860;BME280;62197;51.632;13.700;2023-05-08T03:09:25;101197.09;;;3.55;100.00
73860;BME280;62197;51.632;13.700;2023-05-08T03:11:57;101195.44;;;3.46;100.00
73860;BME280;62197;51.632;13.700;2023-05-08T03:14:25;101202.56;;;3.55;100.00
73860;BME280;62197;51.632;13.700;2023-05-08T03:16:52;101199.41;;;3.66;100.00
73860;BME280;62197;51.632;13.700;2023-05-08T03:19:23;101201.72;;;3.78;100.00
73860;BME280;62197;51.632;13.700;2023-05-08T03:21:52;101203.53;;;3.62;100.00
73860;BME280;62197;51.632;13.700;2023-05-08T03:24:19;101197.97;;;3.56;100.00
73860;BME280;62197;51.632;13.700;2023-05-08T03:26:46;101192.31;;;3.57;100.00
73860;BME280;62197;51.632;13.700;2023-05-08T03:29:12;101201.47;;;3.64;100.00
73860;BME280;62197;51.632;13.700;2023-05-08T03:31:39;101205.59;;;3.60;100.00
73860;BME280;62197;51.632;13.700;2023-05-08T03:34:05;101205.25;;;3.63;100.00
73860;BME280;62197;51.632;13.700;2023-05-08T03:36:32;101193.63;;;3.70;100.00
73860;BME280;62197;51.632;13.700;2023-05-08T03:38:58;101206.84;;;3.81;100.00
73860;BME280;62197;51.632;13.700;2023-05-08T03:41:24;101198.47;;;3.82;100.00
73860;BME280;62197;51.632;13.700;2023-05-08T03:43:49;101201.00;;;3.84;100.00
73860;BME280;62197;51.632;13.700;2023-05-08T03:46:15;101204.22;;;3.87;100.00
73860;BME280;62197;51.632;13.700;2023-05-08T03:48:41;101199.63;;;3.88;100.00
73860;BME280;62197;51.632;13.700;2023-05-08T03:51:07;101200.78;;;3.93;100.00
73860;BME280;62197;51.632;13.700;2023-05-08T03:53:32;101205.22;;;3.94;100.00
73860;BME280;62197;51.632;13.700;2023-05-08T03:55:58;101199.94;;;3.93;100.00
73860;BME280;62197;51.632;13.700;2023-05-08T03:58:40;101198.75;;;4.18;100.00
73860;BME280;62197;51.632;13.700;2023-05-08T04:01:17;101212.94;;;4.13;100.00
73860;BME280;62197;51.632;13.700;2023-05-08T04:03:54;101210.03;;;4.15;100.00
73860;BME280;62197;51.632;13.700;2023-05-08T04:06:33;101212.09;;;4.13;100.00
73860;BME280;62197;51.632;13.700;2023-05-08T04:09:13;101219.13;;;4.30;100.00
73860;BME280;62197;51.632;13.700;2023-05-08T04:11:50;101218.78;;;4.33;100.00
73860;BME280;62197;51.632;13.700;2023-05-08T04:14:18;101224.84;;;4.43;100.00
73860;BME280;62197;51.632;13.700;2023-05-08T04:16:48;101232.00;;;4.44;100.00
73860;BME280;62197;51.632;13.700;2023-05-08T04:19:23;101229.13;;;4.60;100.00
73860;BME280;62197;51.632;13.700;2023-05-08T04:21:52;101223.00;;;4.58;100.00
73860;BME280;62197;51.632;13.700;2023-05-08T04:24:21;101225.66;;;4.66;100.00
73860;BME280;62197;51.632;13.700;2023-05-08T04:26:47;101224.06;;;4.72;100.00
73860;BME280;62197;51.632;13.700;2023-05-08T04:29:13;101237.53;;;4.73;100.00
73860;BME280;62197;51.632;13.700;2023-05-08T04:31:39;101229.63;;;4.78;100.00
73860;BME280;62197;51.632;13.700;2023-05-08T04:34:04;101235.09;;;4.78;100.00
73860;BME280;62197;51.632;13.700;2023-05-08T04:36:31;101234.72;;;4.81;100.00
73860;BME280;62197;51.632;13.700;2023-05-08T04:38:57;101243.59;;;4.83;100.00
73860;BME280;62197;51.632;13.700;2023-05-08T04:41:23;101237.88;;;4.93;100.00
73860;BME280;62197;51.632;13.700;2023-05-08T04:43:48;101240.41;;;4.94;100.00
73860;BME280;62197;51.632;13.700;2023-05-08T04:46:13;101240.41;;;4.94;100.00
73860;BME280;62197;51.632;13.700;2023-05-08T04:48:39;101249.19;;;5.04;100.00
73860;BME280;62197;51.632;13.700;2023-05-08T04:51:04;101244.00;;;5.09;100.00
73860;BME280;62197;51.632;13.700;2023-05-08T04:53:30;101255.91;;;5.16;100.00
73860;BME280;62197;51.632;13.700;2023-05-08T04:55:55;101257.03;;;5.22;100.00
73860;BME280;62197;51.632;13.700;2023-05-08T04:58:21;101260.38;;;5.32;100.00
73860;BME280;62197;51.632;13.700;2023-05-08T05:00:47;101264.22;;;5.37;100.00
73860;BME280;62197;51.632;13.700;2023-05-08T05:03:12;101269.47;;;5.53;100.00
73860;BME280;62197;51.632;13.700;2023-05-08T05:05:37;101231.13;;;5.83;100.00
73860;BME280;62197;51.632;13.700;2023-05-08T05:08:03;101229.72;;;5.87;100.00
73860;BME280;62197;51.632;13.700;2023-05-08T05:10:29;101242.75;;;5.99;100.00
73860;BME280;62197;51.632;13.700;2023-05-08T05:12:54;101237.31;;;6.06;100.00
73860;BME280;62197;51.632;13.700;2023-05-08T05:15:19;101232.78;;;6.13;100.00
73860;BME280;62197;51.632;13.700;2023-05-08T05:17:45;101243.22;;;6.24;100.00
73860;BME280;62197;51.632;13.700;2023-05-08T05:20:10;101245.44;;;6.35;100.00
73860;BME280;62197;51.632;13.700;2023-05-08T05:22:36;101240.88;;;6.42;100.00
73860;BME280;62197;51.632;13.700;2023-05-08T05:25:01;101246.25;;;6.50;100.00
73860;BME280;62197;51.632;13.700;2023-05-08T05:27:27;101242.31;;;6.59;100.00
73860;BME280;62197;51.632;13.700;2023-05-08T05:29:52;101240.78;;;6.78;100.00
73860;BME280;62197;51.632;13.700;2023-05-08T05:32:17;101252.47;;;6.86;100.00
73860;BME280;62197;51.632;13.700;2023-05-08T05:34:42;101256.53;;;6.97;100.00
73860;BME280;62197;51.632;13.700;2023-05-08T05:37:08;101249.09;;;7.12;100.00
73860;BME280;62197;51.632;13.700;2023-05-08T05:39:33;101254.47;;;7.26;100.00
73860;BME280;62197;51.632;13.700;2023-05-08T05:42:00;101255.16;;;7.35;100.00
73860;BME280;62197;51.632;13.700;2023-05-08T05:44:25;101245.75;;;7.51;100.00
73860;BME280;62197;51.632;13.700;2023-05-08T05:46:50;101252.75;;;7.60;97.20
73860;BME280;62197;51.632;13.700;2023-05-08T05:49:16;101253.63;;;7.67;96.78
73860;BME280;62197;51.632;13.700;2023-05-08T05:51:41;101258.56;;;7.78;94.96
73860;BME280;62197;51.632;13.700;2023-05-08T05:54:06;101260.94;;;7.87;94.12
73860;BME280;62197;51.632;13.700;2023-05-08T05:56:32;101251.84;;;7.87;93.99
73860;BME280;62197;51.632;13.700;2023-05-08T05:58:57;101274.69;;;7.94;91.73
73860;BME280;62197;51.632;13.700;2023-05-08T06:01:22;101252.53;;;8.02;91.44
73860;BME280;62197;51.632;13.700;2023-05-08T06:03:48;101268.84;;;8.10;91.99
73860;BME280;62197;51.632;13.700;2023-05-08T06:06:14;101263.81;;;8.20;90.25
73860;BME280;62197;51.632;13.700;2023-05-08T06:08:39;101259.81;;;8.29;89.18
73860;BME280;62197;51.632;13.700;2023-05-08T06:11:05;101262.19;;;8.32;88.32
73860;BME280;62197;51.632;13.700;2023-05-08T06:13:30;101260.09;;;8.47;88.12
73860;BME280;62197;51.632;13.700;2023-05-08T06:15:56;101257.13;;;8.62;87.23
73860;BME280;62197;51.632;13.700;2023-05-08T06:18:21;101266.50;;;8.93;86.48
73860;BME280;62197;51.632;13.700;2023-05-08T06:20:47;101263.09;;;9.31;87.67
73860;BME280;62197;51.632;13.700;2023-05-08T06:23:12;101260.34;;;9.31;81.73
73860;BME280;62197;51.632;13.700;2023-05-08T06:25:38;101251.22;;;9.30;81.66
73860;BME280;62197;51.632;13.700;2023-05-08T06:28:04;101263.09;;;9.31;82.80
73860;BME280;62197;51.632;13.700;2023-05-08T06:30:32;101263.50;;;9.28;80.32
73860;BME280;62197;51.632;13.700;2023-05-08T06:32:57;101265.22;;;9.29;80.05
73860;BME280;62197;51.632;13.700;2023-05-08T06:35:22;101271.34;;;9.31;79.52
73860;BME280;62197;51.632;13.700;2023-05-08T06:37:48;101268.16;;;9.34;79.31
73860;BME280;62197;51.632;13.700;2023-05-08T06:40:13;101269.59;;;9.43;78.98
73860;BME280;62197;51.632;13.700;2023-05-08T06:42:38;101284.25;;;9.50;77.93
73860;BME280;62197;51.632;13.700;2023-05-08T06:45:04;101284.66;;;9.60;78.38
73860;BME280;62197;51.632;13.700;2023-05-08T06:47:30;101285.03;;;9.70;76.40
73860;BME280;62197;51.632;13.700;2023-05-08T06:49:55;101287.59;;;9.71;76.71
73860;BME280;62197;51.632;13.700;2023-05-08T06:52:21;101286.47;;;9.85;76.41
73860;BME280;62197;51.632;13.700;2023-05-08T06:54:46;101291.09;;;9.98;76.54
73860;BME280;62197;51.632;13.700;2023-05-08T06:57:11;101279.22;;;9.97;74.99
73860;BME280;62197;51.632;13.700;2023-05-08T06:59:38;101271.34;;;10.08;75.02
73860;BME280;62197;51.632;13.700;2023-05-08T07:02:04;101283.59;;;10.18;75.33
73860;BME280;62197;51.632;13.700;2023-05-08T07:04:29;101284.44;;;10.25;73.19
73860;BME280;62197;51.632;13.700;2023-05-08T07:06:54;101283.56;;;10.31;74.07
73860;BME280;62197;51.632;13.700;2023-05-08T07:09:19;101279.22;;;10.48;73.41
73860;BME280;62197;51.632;13.700;2023-05-08T07:11:45;101276.13;;;10.63;73.88
73860;BME280;62197;51.632;13.700;2023-05-08T07:14:10;101274.22;;;10.63;71.14
73860;BME280;62197;51.632;13.700;2023-05-08T07:16:35;101278.38;;;10.79;71.44
73860;BME280;62197;51.632;13.700;2023-05-08T07:19:01;101275.13;;;10.88;70.74
73860;BME280;62197;51.632;13.700;2023-05-08T07:21:27;101277.16;;;11.00;70.82
73860;BME280;62197;51.632;13.700;2023-05-08T07:23:53;101284.22;;;11.20;71.08
73860;BME280;62197;51.632;13.700;2023-05-08T07:26:18;101277.28;;;11.36;70.10
73860;BME280;62197;51.632;13.700;2023-05-08T07:28:44;101273.50;;;11.30;66.96
73860;BME280;62197;51.632;13.700;2023-05-08T07:31:09;101280.66;;;11.38;64.44
73860;BME280;62197;51.632;13.700;2023-05-08T07:33:34;101264.22;;;11.43;65.89
73860;BME280;62197;51.632;13.700;2023-05-08T07:35:59;101275.66;;;11.46;64.46
73860;BME280;62197;51.632;13.700;2023-05-08T07:38:25;101270.38;;;11.45;63.10
73860;BME280;62197;51.632;13.700;2023-05-08T07:40:50;101276.88;;;11.75;63.79
73860;BME280;62197;51.632;13.700;2023-05-08T07:43:17;101268.38;;;11.76;63.36
73860;BME280;62197;51.632;13.700;2023-05-08T07:45:42;101264.63;;;11.64;60.71
73860;BME280;62197;51.632;13.700;2023-05-08T07:48:07;101264.19;;;11.67;60.84
73860;BME280;62197;51.632;13.700;2023-05-08T07:50:33;101276.72;;;11.70;59.99
73860;BME280;62197;51.632;13.700;2023-05-08T07:52:58;101280.44;;;11.82;60.95
73860;BME280;62197;51.632;13.700;2023-05-08T07:55:23;101283.16;;;12.00;61.23
73860;BME280;62197;51.632;13.700;2023-05-08T07:57:48;101273.31;;;12.22;61.34
73860;BME280;62197;51.632;13.700;2023-05-08T08:00:14;101280.09;;;12.26;58.88
73860;BME280;62197;51.632;13.700;2023-05-08T08:02:41;101266.69;;;12.41;59.95
73860;BME280;62197;51.632;13.700;2023-05-08T08:05:06;101272.50;;;12.51;61.52
73860;BME280;62197;51.632;13.700;2023-05-08T08:07:32;101271.97;;;12.43;58.93
73860;BME280;62197;51.632;13.700;2023-05-08T08:09:58;101263.47;;;12.44;58.87
73860;BME280;62197;51.632;13.700;2023-05-08T08:12:23;101277.91;;;12.46;58.28
73860;BME280;62197;51.632;13.700;2023-05-08T08:14:48;101277.09;;;12.57;57.06
73860;BME280;62197;51.632;13.700;2023-05-08T08:17:14;101267.44;;;12.48;57.94
73860;BME280;62197;51.632;13.700;2023-05-08T08:19:39;101273.44;;;12.45;57.66
73860;BME280;62197;51.632;13.700;2023-05-08T08:22:04;101257.34;;;12.54;58.43
73860;BME280;62197;51.632;13.700;2023-05-08T08:24:30;101272.63;;;12.56;57.80
73860;BME280;62197;51.632;13.700;2023-05-08T08:26:56;101265.19;;;12.57;56.50
73860;BME280;62197;51.632;13.700;2023-05-08T08:29:21;101251.31;;;12.87;57.02
73860;BME280;62197;51.632;13.700;2023-05-08T08:31:46;101256.97;;;12.92;56.78
73860;BME280;62197;51.632;13.700;2023-05-08T08:34:11;101259.41;;;13.00;55.80
73860;BME280;62197;51.632;13.700;2023-05-08T08:36:38;101264.25;;;13.04;54.57
73860;BME280;62197;51.632;13.700;2023-05-08T08:39:03;101273.81;;;13.20;54.76
73860;BME280;62197;51.632;13.700;2023-05-08T08:41:28;101262.31;;;13.05;52.64
73860;BME280;62197;51.632;13.700;2023-05-08T08:43:54;101267.88;;;13.28;54.48
73860;BME280;62197;51.632;13.700;2023-05-08T08:46:20;101268.38;;;13.48;54.11
73860;BME280;62197;51.632;13.700;2023-05-08T08:48:48;101267.78;;;13.57;54.23
73860;BME280;62197;51.632;13.700;2023-05-08T08:51:24;101271.03;;;13.66;53.09
73860;BME280;62197;51.632;13.700;2023-05-08T08:54:01;101267.31;;;13.72;54.34
73860;BME280;62197;51.632;13.700;2023-05-08T08:56:28;101271.66;;;13.68;51.88
73860;BME280;62197;51.632;13.700;2023-05-08T08:58:56;101271.16;;;13.71;51.38
73860;BME280;62197;51.632;13.700;2023-05-08T09:01:23;101249.28;;;13.86;52.11
73860;BME280;62197;51.632;13.700;2023-05-08T09:03:50;101268.59;;;13.81;51.35
73860;BME280;62197;51.632;13.700;2023-05-08T09:06:15;101270.41;;;13.87;51.33
73860;BME280;62197;51.632;13.700;2023-05-08T09:08:41;101267.25;;;14.07;52.03
73860;BME280;62197;51.632;13.700;2023-05-08T09:11:07;101268.34;;;13.94;50.35
73860;BME280;62197;51.632;13.700;2023-05-08T09:13:32;101249.03;;;13.99;48.68
73860;BME280;62197;51.632;13.700;2023-05-08T09:15:58;101255.97;;;14.13;50.37
73860;BME280;62197;51.632;13.700;2023-05-08T09:18:23;101260.88;;;14.34;50.23
73860;BME280;62197;51.632;13.700;2023-05-08T09:20:49;101261.69;;;14.46;49.61
73860;BME280;62197;51.632;13.700;2023-05-08T09:23:16;101250.78;;;14.57;46.98
73860;BME280;62197;51.632;13.700;2023-05-08T09:25:46;101253.84;;;14.72;49.92
73860;BME280;62197;51.632;13.700;2023-05-08T09:28:20;101257.00;;;14.92;47.61
73860;BME280;62197;51.632;13.700;2023-05-08T09:30:55;101242.72;;;14.72;47.35
73860;BME280;62197;51.632;13.700;2023-05-08T09:33:22;101265.16;;;14.82;47.24
73860;BME280;62197;51.632;13.700;2023-05-08T09:35:48;101249.47;;;14.76;45.73
73860;BME280;62197;51.632;13.700;2023-05-08T09:41:14;101247.13;;;14.84;46.51
73860;BME280;62197;51.632;13.700;2023-05-08T09:43:41;101249.31;;;14.99;47.31
73860;BME280;62197;51.632;13.700;2023-05-08T09:46:19;101250.66;;;14.96;46.15
73860;BME280;62197;51.632;13.700;2023-05-08T09:48:48;101250.69;;;15.13;45.68
73860;BME280;62197;51.632;13.700;2023-05-08T09:51:14;101254.91;;;15.32;44.71
73860;BME280;62197;51.632;13.700;2023-05-08T09:53:40;101245.13;;;15.29;44.47
73860;BME280;62197;51.632;13.700;2023-05-08T09:56:05;101246.97;;;15.24;42.03
73860;BME280;62197;51.632;13.700;2023-05-08T09:58:41;101238.81;;;15.34;44.29
73860;BME280;62197;51.632;13.700;2023-05-08T10:01:07;101245.44;;;15.33;43.97
73860;BME280;62197;51.632;13.700;2023-05-08T10:03:50;101247.06;;;15.29;42.06
73860;BME280;62197;51.632;13.700;2023-05-08T10:06:16;101238.22;;;15.32;41.92
73860;BME280;62197;51.632;13.700;2023-05-08T10:08:41;101226.25;;;15.48;41.94
73860;BME280;62197;51.632;13.700;2023-05-08T10:13:40;101227.72;;;15.72;40.07
73860;BME280;62197;51.632;13.700;2023-05-08T10:16:06;101230.59;;;15.77;41.22
73860;BME280;62197;51.632;13.700;2023-05-08T10:18:36;101229.66;;;15.93;40.80
73860;BME280;62197;51.632;13.700;2023-05-08T10:21:05;101234.06;;;15.89;40.05
73860;BME280;62197;51.632;13.700;2023-05-08T10:23:33;101230.06;;;15.80;40.39
73860;BME280;62197;51.632;13.700;2023-05-08T10:26:06;101230.66;;;16.04;39.51
73860;BME280;62197;51.632;13.700;2023-05-08T10:28:48;101236.31;;;16.36;39.14
73860;BME280;62197;51.632;13.700;2023-05-08T10:31:17;101230.28;;;16.44;41.69
73860;BME280;62197;51.632;13.700;2023-05-08T10:33:44;101225.44;;;16.34;42.05
73860;BME280;62197;51.632;13.700;2023-05-08T10:36:10;101234.66;;;16.35;42.14
73860;BME280;62197;51.632;13.700;2023-05-08T10:38:38;101224.97;;;16.64;38.74
73860;BME280;62197;51.632;13.700;2023-05-08T10:41:04;101220.13;;;16.81;37.26
73860;BME280;62197;51.632;13.700;2023-05-08T10:43:29;101222.22;;;16.69;36.92
73860;BME280;62197;51.632;13.700;2023-05-08T10:48:47;101228.69;;;17.01;38.20
73860;BME280;62197;51.632;13.700;2023-05-08T10:51:37;101222.28;;;17.05;38.71
73860;BME280;62197;51.632;13.700;2023-05-08T10:54:18;101235.53;;;16.88;36.47
73860;BME280;62197;51.632;13.700;2023-05-08T10:56:47;101222.88;;;17.44;36.37
73860;BME280;62197;51.632;13.700;2023-05-08T10:59:19;101230.03;;;18.24;36.73
73860;BME280;62197;51.632;13.700;2023-05-08T11:01:48;101215.44;;;18.99;34.48
73860;BME280;62197;51.632;13.700;2023-05-08T11:04:21;101202.25;;;19.59;33.11
73860;BME280;62197;51.632;13.700;2023-05-08T11:06:47;101215.66;;;20.46;31.08
73860;BME280;62197;51.632;13.700;2023-05-08T11:12:19;101219.25;;;20.57;31.08
73860;BME280;62197;51.632;13.700;2023-05-08T11:15:02;101211.94;;;20.61;31.65
73860;BME280;62197;51.632;13.700;2023-05-08T11:17:28;101211.84;;;20.76;30.02
73860;BME280;62197;51.632;13.700;2023-05-08T11:19:58;101201.28;;;20.97;30.03
73860;BME280;62197;51.632;13.700;2023-05-08T11:22:26;101214.03;;;20.79;28.15
73860;BME280;62197;51.632;13.700;2023-05-08T11:25:06;101213.28;;;20.68;27.98
73860;BME280;62197;51.632;13.700;2023-05-08T11:27:38;101211.94;;;21.38;27.94
73860;BME280;62197;51.632;13.700;2023-05-08T11:38:21;101209.31;;;22.23;27.02
73860;BME280;62197;51.632;13.700;2023-05-08T11:40:49;101205.94;;;23.00;26.16
73860;BME280;62197;51.632;13.700;2023-05-08T11:46:17;101199.72;;;23.03;26.86
73860;BME280;62197;51.632;13.700;2023-05-08T11:48:43;101208.78;;;22.82;27.57
73860;BME280;62197;51.632;13.700;2023-05-08T11:51:09;101206.91;;;22.54;26.17
73860;BME280;62197;51.632;13.700;2023-05-08T11:53:37;101197.38;;;22.73;25.61
73860;BME280;62197;51.632;13.700;2023-05-08T11:56:02;101192.75;;;23.14;26.49
73860;BME280;62197;51.632;13.700;2023-05-08T11:58:28;101193.13;;;22.76;25.92
73860;BME280;62197;51.632;13.700;2023-05-08T12:00:53;101191.50;;;23.39;26.38
73860;BME280;62197;51.632;13.700;2023-05-08T12:03:22;101193.50;;;24.25;25.01
73860;BME280;62197;51.632;13.700;2023-05-08T12:05:49;101200.75;;;23.07;25.02
73860;BME280;62197;51.632;13.700;2023-05-08T12:08:16;101194.34;;;23.20;23.76
73860;BME280;62197;51.632;13.700;2023-05-08T12:13:17;101206.72;;;23.84;23.06
73860;BME280;62197;51.632;13.700;2023-05-08T12:15:47;101199.06;;;23.57;23.51
73860;BME280;62197;51.632;13.700;2023-05-08T12:18:12;101199.50;;;24.46;23.28
73860;BME280;62197;51.632;13.700;2023-05-08T12:20:38;101191.41;;;24.03;23.46
73860;BME280;62197;51.632;13.700;2023-05-08T12:23:03;101184.28;;;23.79;21.97
73860;BME280;62197;51.632;13.700;2023-05-08T12:25:29;101185.25;;;24.64;21.28
73860;BME280;62197;51.632;13.700;2023-05-08T12:27:55;101177.28;;;24.66;20.03
73860;BME280;62197;51.632;13.700;2023-05-08T12:30:21;101170.22;;;23.47;21.52
73860;BME280;62197;51.632;13.700;2023-05-08T12:32:47;101187.13;;;24.69;22.12
73860;BME280;62197;51.632;13.700;2023-05-08T12:35:13;101182.59;;;24.32;21.08
73860;BME280;62197;51.632;13.700;2023-05-08T12:37:39;101187.78;;;25.24;21.05
73860;BME280;62197;51.632;13.700;2023-05-08T12:40:05;101176.56;;;25.63;20.76
73860;BME280;62197;51.632;13.700;2023-05-08T12:42:43;101183.66;;;25.08;20.45
73860;BME280;62197;51.632;13.700;2023-05-08T12:45:19;101179.59;;;24.78;20.43
73860;BME280;62197;51.632;13.700;2023-05-08T12:47:48;101177.47;;;25.50;20.87
73860;BME280;62197;51.632;13.700;2023-05-08T12:50:15;101179.28;;;24.16;21.97
73860;BME280;62197;51.632;13.700;2023-05-08T12:52:40;101168.84;;;24.17;23.34
73860;BME280;62197;51.632;13.700;2023-05-08T12:55:22;101184.63;;;24.81;22.04
73860;BME280;62197;51.632;13.700;2023-05-08T12:57:48;101168.63;;;23.86;23.27
73860;BME280;62197;51.632;13.700;2023-05-08T13:00:16;101185.47;;;23.46;23.29
73860;BME280;62197;51.632;13.700;2023-05-08T13:02:52;101171.06;;;22.64;23.73
73860;BME280;62197;51.632;13.700;2023-05-08T13:05:20;101166.84;;;22.80;25.41
73860;BME280;62197;51.632;13.700;2023-05-08T13:07:45;101166.88;;;23.45;23.44
73860;BME280;62197;51.632;13.700;2023-05-08T13:10:11;101161.94;;;23.69;21.27
73860;BME280;62197;51.632;13.700;2023-05-08T13:12:36;101159.03;;;23.09;21.70
73860;BME280;62197;51.632;13.700;2023-05-08T13:15:01;101146.03;;;23.13;22.34
73860;BME280;62197;51.632;13.700;2023-05-08T13:17:28;101155.00;;;23.15;22.73
73860;BME280;62197;51.632;13.700;2023-05-08T13:19:54;101147.97;;;22.99;21.95
73860;BME280;62197;51.632;13.700;2023-05-08T13:22:19;101155.25;;;23.65;21.28
73860;BME280;62197;51.632;13.700;2023-05-08T13:24:47;101147.00;;;23.82;20.87
73860;BME280;62197;51.632;13.700;2023-05-08T13:27:12;101141.28;;;25.30;20.81
73860;BME280;62197;51.632;13.700;2023-05-08T13:29:38;101136.81;;;25.07;19.97